Time;durP1;ratioP1;P1;durP2;ratioP2;P2;SDS_P1;SDS_P2;PMS_P1;PMS_P2;Temp;Humidity;BMP_temperature;BMP_pressure;BME280_temperature;BME280_humidity;BME280_pressure;Samples;Min_cycle;Max_cycle;Signal;HPM_P1;HPM_P2
2021/11/14 00:02:03;;;;;;;;;5.00;3.50;;;;;22.05;42.14;101746.53;4972532;28;45501;-65
2021/11/14 00:04:28;;;;;;;;;3.00;3.00;;;;;22.05;42.46;101749.19;4972204;28;45535;-67
2021/11/14 00:06:53;;;;;;;;;4.00;4.00;;;;;22.05;42.57;101740.41;4972528;28;45422;-66
2021/11/14 00:09:19;;;;;;;;;4.00;4.00;;;;;22.06;42.31;101750.03;4972768;28;45354;-67
2021/11/14 00:11:45;;;;;;;;;4.00;4.00;;;;;22.03;42.25;101745.88;4974586;28;45464;-67
2021/11/14 00:14:11;;;;;;;;;4.00;4.00;;;;;22.06;41.82;101747.38;4970959;28;45385;-67
2021/11/14 00:16:37;;;;;;;;;3.00;3.00;;;;;22.06;42.13;101748.22;4972565;28;45393;-65
2021/11/14 00:19:03;;;;;;;;;6.00;4.00;;;;;22.07;41.95;101751.66;4972261;28;45327;-67
2021/11/14 00:21:29;;;;;;;;;5.00;5.00;;;;;22.07;41.80;101752.50;4971011;28;45550;-67
2021/11/14 00:23:55;;;;;;;;;6.75;5.50;;;;;22.05;42.16;101746.53;4973219;28;45534;-65
2021/11/14 00:26:22;;;;;;;;;6.25;3.50;;;;;22.06;42.46;101748.22;4973622;28;45445;-65
2021/11/14 00:28:48;;;;;;;;;6.25;4.75;;;;;22.07;42.42;101743.72;4970790;28;45468;-65
2021/11/14 00:31:19;;;;;;;;;6.75;4.00;;;;;22.03;42.04;101745.03;4972203;28;45485;-65
2021/11/14 00:33:47;;;;;;;;;5.75;4.00;;;;;22.06;42.45;101747.38;4971818;28;45565;-65
2021/11/14 00:36:16;;;;;;;;;5.00;4.00;;;;;22.07;42.29;101757.81;4972254;28;45372;-65
2021/11/14 00:38:42;;;;;;;;;4.00;3.75;;;;;22.02;42.42;101754.78;4974433;28;45399;-65
2021/11/14 00:41:08;;;;;;;;;5.25;4.25;;;;;22.02;42.30;101744.19;4971995;28;45316;-65
2021/11/14 00:43:35;;;;;;;;;5.75;4.00;;;;;22.06;41.95;101755.31;4971860;28;45986;-65
2021/11/14 00:46:03;;;;;;;;;6.25;4.25;;;;;22.06;42.27;101755.31;4972016;28;45447;-66
2021/11/14 00:48:28;;;;;;;;;4.25;4.00;;;;;22.05;41.79;101754.47;4971818;28;45382;-65
2021/11/14 00:50:54;;;;;;;;;5.75;5.25;;;;;22.06;42.42;101756.16;4973012;28;45533;-65
2021/11/14 00:53:20;;;;;;;;;7.00;5.00;;;;;22.03;41.86;101750.34;4972657;28;46056;-65
2021/11/14 00:55:47;;;;;;;;;6.00;4.75;;;;;22.06;42.13;101756.16;4971874;28;45470;-65
2021/11/14 00:58:12;;;;;;;;;3.00;3.00;;;;;22.04;42.14;101752.00;4972000;28;45387;-65
2021/11/14 01:00:38;;;;;;;;;5.00;4.00;;;;;22.01;42.44;101747.00;4970334;28;45479;-64
2021/11/14 01:03:06;;;;;;;;;4.75;4.00;;;;;22.03;42.15;101756.47;4971985;28;46904;-65
2021/11/14 01:05:33;;;;;;;;;6.00;3.75;;;;;21.92;41.86;101730.22;4972655;28;45475;-65
2021/11/14 01:07:59;;;;;;;;;6.75;5.50;;;;;22.05;41.90;101746.53;4970778;28;45363;-65
2021/11/14 01:10:28;;;;;;;;;4.75;4.75;;;;;22.04;41.82;101744.84;4971532;28;45536;-65
2021/11/14 01:12:53;;;;;;;;;5.00;5.00;;;;;22.05;41.90;101745.69;4971704;28;48002;-65
2021/11/14 01:15:20;;;;;;;;;4.00;3.25;;;;;22.06;42.00;101748.22;4971400;28;45536;-65
2021/11/14 01:17:46;;;;;;;;;4.25;4.25;;;;;22.00;41.69;101735.56;4974058;28;45512;-65
2021/11/14 01:20:17;;;;;;;;;6.25;4.00;;;;;22.05;42.10;101741.22;4970362;28;45340;-65
2021/11/14 01:22:43;;;;;;;;;5.00;5.00;;;;;22.01;42.32;101739.06;4971123;28;48896;-65
2021/11/14 01:25:10;;;;;;;;;5.00;5.00;;;;;22.07;42.21;101751.66;4971475;28;45426;-65
2021/11/14 01:27:37;;;;;;;;;5.00;3.75;;;;;22.04;41.96;101752.81;4971796;28;45337;-66
2021/11/14 01:30:10;;;;;;;;;3.00;3.00;;;;;22.05;41.95;101753.66;4971232;28;45355;-65
2021/11/14 01:32:36;;;;;;;;;6.25;5.00;;;;;22.04;42.31;101749.34;4973467;28;46356;-65
2021/11/14 01:35:01;;;;;;;;;5.00;4.00;;;;;22.04;42.39;101752.00;4971372;28;45518;-65
2021/11/14 01:37:26;;;;;;;;;5.50;3.50;;;;;22.07;42.29;101752.50;4971597;28;45597;-65
2021/11/14 01:39:52;;;;;;;;;7.50;5.50;;;;;22.05;42.30;101754.47;4969996;28;45348;-65
2021/11/14 01:42:17;;;;;;;;;3.00;3.00;;;;;22.06;41.91;101757.97;4971649;28;45423;-65
2021/11/14 01:44:43;;;;;;;;;5.00;5.00;;;;;22.05;42.07;101761.59;4967705;28;45602;-65
2021/11/14 01:47:08;;;;;;;;;5.25;5.25;;;;;22.04;41.96;101759.94;4970083;28;45317;-65
2021/11/14 01:49:33;;;;;;;;;4.00;4.00;;;;;22.06;41.83;101765.91;4971466;28;45299;-65
2021/11/14 01:51:59;;;;;;;;;8.25;5.50;;;;;22.06;42.27;101760.63;4970807;28;45305;-65
2021/11/14 01:54:24;;;;;;;;;4.50;4.50;;;;;22.05;42.32;101751.00;4971350;28;45373;-65
2021/11/14 01:56:50;;;;;;;;;3.75;3.75;;;;;22.07;41.96;101755.16;4972674;28;45384;-65
2021/11/14 01:59:16;;;;;;;;;6.50;4.25;;;;;22.08;42.27;101758.63;4971508;28;45410;-65
2021/11/14 02:01:41;;;;;;;;;5.00;4.00;;;;;22.07;41.75;101759.63;4970913;28;45631;-65
2021/11/14 02:04:07;;;;;;;;;6.50;4.25;;;;;22.00;41.95;101746.19;4971066;28;45466;-65
2021/11/14 02:06:35;;;;;;;;;4.25;3.75;;;;;22.05;42.22;101756.28;4974292;28;45646;-65
2021/11/14 02:09:02;;;;;;;;;4.00;4.00;;;;;21.89;41.99;101731.38;4974321;28;45457;-65
2021/11/14 02:11:27;;;;;;;;;4.25;4.25;;;;;22.03;42.14;101755.63;4973774;28;45438;-65
2021/11/14 02:13:53;;;;;;;;;3.50;3.00;;;;;22.04;42.35;101757.31;4973376;28;45494;-66
2021/11/14 02:16:23;;;;;;;;;3.25;3.25;;;;;22.04;42.08;101758.09;4973960;28;45376;-65
2021/11/14 02:18:50;;;;;;;;;4.00;4.00;;;;;22.04;42.09;101758.09;4972721;28;45717;-65
2021/11/14 02:21:15;;;;;;;;;3.50;3.50;;;;;21.87;41.74;101733.34;4958310;28;45594;-65
2021/11/14 02:23:41;;;;;;;;;3.25;3.25;;;;;22.03;42.14;101756.47;4975896;28;45296;-65
2021/11/14 02:26:07;;;;;;;;;3.25;3.00;;;;;22.03;42.12;101761.78;4979078;28;45637;-65
2021/11/14 02:28:32;;;;;;;;;5.50;3.75;;;;;22.04;41.84;101760.75;4973636;28;45522;-65
2021/11/14 02:30:59;;;;;;;;;5.25;4.00;;;;;22.01;42.13;101760.25;4973382;28;45335;-65
2021/11/14 02:33:26;;;;;;;;;6.50;5.25;;;;;22.04;42.21;101760.75;4973769;28;45383;-66
2021/11/14 02:35:57;;;;;;;;;3.50;3.25;;;;;22.04;42.25;101763.41;4974949;28;45410;-65
2021/11/14 02:38:23;;;;;;;;;4.75;4.75;;;;;22.03;42.09;101760.94;4975135;28;45417;-65
2021/11/14 02:40:50;;;;;;;;;4.50;4.50;;;;;22.04;42.16;101758.09;4973413;28;45521;-65
2021/11/14 02:43:16;;;;;;;;;4.75;4.75;;;;;22.05;41.57;101767.72;4973141;28;45458;-65
2021/11/14 02:45:42;;;;;;;;;4.75;4.00;;;;;22.00;41.81;101745.34;4973702;28;45427;-65
2021/11/14 02:48:10;;;;;;;;;5.00;3.00;;;;;22.04;42.36;101763.41;4973605;28;45593;-65
2021/11/14 02:50:36;;;;;;;;;3.50;3.50;;;;;22.01;42.13;101750.50;4975418;28;46244;-66
2021/11/14 02:53:04;;;;;;;;;3.25;2.25;;;;;22.05;42.12;101753.66;4973444;28;45411;-66
2021/11/14 02:55:30;;;;;;;;;3.25;2.75;;;;;22.06;41.96;101764.09;4971988;28;45395;-67
2021/11/14 02:57:56;;;;;;;;;4.50;3.50;;;;;22.05;42.18;101749.19;4972471;28;45462;-67
2021/11/14 03:00:30;;;;;;;;;3.50;3.00;;;;;22.06;41.67;101755.31;4973422;28;47504;-67
2021/11/14 03:02:56;;;;;;;;;3.50;3.50;;;;;22.06;42.08;101765.91;4974354;28;45414;-66
2021/11/14 03:05:22;;;;;;;;;7.25;5.00;;;;;22.06;42.21;101755.31;4973181;28;45434;-65
2021/11/14 03:07:49;;;;;;;;;4.00;3.00;;;;;21.94;42.19;101737.03;4973434;28;45366;-65
2021/11/14 03:10:18;;;;;;;;;4.50;4.00;;;;;22.07;41.60;101749.00;4972306;28;45477;-65
2021/11/14 03:12:54;;;;;;;;;5.00;3.50;;;;;22.06;42.20;101747.38;4972877;28;45533;-65
2021/11/14 03:15:19;;;;;;;;;3.25;3.25;;;;;22.02;41.71;101735.41;4957121;28;45456;-66
2021/11/14 03:17:45;;;;;;;;;4.25;3.75;;;;;22.04;41.82;101744.84;4974027;28;45427;-65
2021/11/14 03:20:11;;;;;;;;;3.00;3.00;;;;;22.05;42.09;101745.69;4972850;28;46167;-65
2021/11/14 03:22:37;;;;;;;;;3.25;3.25;;;;;22.04;41.63;101741.41;4973076;28;45401;-65
2021/11/14 03:25:03;;;;;;;;;3.00;3.00;;;;;22.02;41.97;101746.84;4973219;28;45308;-66
2021/11/14 03:27:30;;;;;;;;;3.00;3.00;;;;;22.03;41.79;101748.50;4972865;28;45518;-65
2021/11/14 03:29:55;;;;;;;;;2.50;2.50;;;;;22.05;41.91;101748.34;4973723;28;46307;-65
2021/11/14 03:32:21;;;;;;;;;4.25;4.00;;;;;22.01;42.26;101747.00;4974142;28;45344;-66
2021/11/14 03:34:47;;;;;;;;;5.00;4.00;;;;;22.04;42.13;101757.31;4972948;28;45436;-65
2021/11/14 03:37:20;;;;;;;;;3.50;3.25;;;;;22.04;42.13;101759.94;4971453;28;45569;-65
2021/11/14 03:39:46;;;;;;;;;2.50;2.50;;;;;22.02;41.78;101764.56;4971778;28;46584;-65
2021/11/14 03:42:12;;;;;;;;;3.00;3.00;;;;;22.04;41.78;101763.41;4971778;28;45463;-65
2021/11/14 03:44:40;;;;;;;;;3.50;3.00;;;;;22.04;41.48;101760.75;4974496;28;45340;-65
2021/11/14 03:47:06;;;;;;;;;5.25;3.75;;;;;22.01;41.90;101755.81;4972710;28;45505;-65
2021/11/14 03:49:31;;;;;;;;;3.00;3.00;;;;;22.04;42.20;101765.25;4973762;28;45397;-65
2021/11/14 03:51:57;;;;;;;;;3.00;3.00;;;;;21.89;41.63;101743.78;4972573;28;45269;-65
2021/11/14 03:54:23;;;;;;;;;0.00;0.00;;;;;22.04;42.13;101767.91;4972298;28;45535;-65
2021/11/14 03:56:48;;;;;;;;;3.00;3.00;;;;;22.03;41.60;101761.78;4974059;28;45391;-64
2021/11/14 03:59:14;;;;;;;;;4.25;2.00;;;;;22.03;41.83;101764.41;4968309;28;46346;-64
2021/11/14 04:01:39;;;;;;;;;4.75;3.00;;;;;22.02;41.67;101761.91;4967027;28;45314;-64
2021/11/14 04:04:05;;;;;;;;;4.00;3.00;;;;;21.99;42.43;101754.28;4972572;28;45926;-64
2021/11/14 04:06:30;;;;;;;;;3.00;3.00;;;;;22.02;41.79;101760.09;4972590;28;45405;-64
2021/11/14 04:08:56;;;;;;;;;2.50;2.50;;;;;22.01;42.37;101758.44;4972096;28;46366;-65
2021/11/14 04:11:23;;;;;;;;;3.00;3.00;;;;;22.05;42.21;101769.53;4972501;28;45776;-65
2021/11/14 04:13:49;;;;;;;;;3.75;3.75;;;;;22.01;42.38;101757.63;4972379;28;45535;-65
2021/11/14 04:16:14;;;;;;;;;3.75;3.75;;;;;22.04;42.30;101757.31;4972318;28;45602;-65
2021/11/14 04:18:40;;;;;;;;;2.50;2.50;;;;;22.01;41.94;101762.91;4971951;28;46247;-65
2021/11/14 04:21:09;;;;;;;;;3.50;3.50;;;;;22.05;42.15;101766.91;4971790;28;45474;-65
2021/11/14 04:23:35;;;;;;;;;2.00;2.00;;;;;22.00;42.40;101762.06;4974027;28;45535;-66
2021/11/14 04:26:01;;;;;;;;;2.50;2.00;;;;;22.04;42.12;101758.09;4972026;28;45311;-65
2021/11/14 04:28:26;;;;;;;;;4.00;3.00;;;;;22.03;41.90;101763.56;4971007;28;47297;-65
2021/11/14 04:30:52;;;;;;;;;2.75;2.75;;;;;22.05;42.40;101774.84;4971961;28;45389;-65
2021/11/14 04:33:19;;;;;;;;;4.25;4.25;;;;;22.05;42.38;101769.53;4972357;28;45534;-65
2021/11/14 04:35:45;;;;;;;;;3.00;2.00;;;;;22.03;42.29;101768.88;4970540;28;45382;-66
2021/11/14 04:38:11;;;;;;;;;5.00;3.00;;;;;22.05;42.23;101766.91;4971836;28;46011;-64
2021/11/14 04:40:39;;;;;;;;;2.00;2.00;;;;;22.05;42.24;101777.50;4971880;28;45405;-65
2021/11/14 04:43:06;;;;;;;;;3.00;3.00;;;;;22.05;42.31;101775.69;4972365;28;45584;-65
2021/11/14 04:45:32;;;;;;;;;2.75;2.50;;;;;22.03;42.20;101772.38;4972412;28;45505;-65
2021/11/14 04:47:58;;;;;;;;;2.25;2.00;;;;;22.05;42.45;101774.84;4972492;28;46212;-65
2021/11/14 04:50:24;;;;;;;;;2.00;2.00;;;;;22.04;41.78;101775.84;4973439;28;45991;-65
2021/11/14 04:52:52;;;;;;;;;3.25;2.75;;;;;22.06;42.05;101776.53;4971834;28;45490;-65
2021/11/14 04:55:18;;;;;;;;;4.00;3.00;;;;;22.05;42.43;101767.72;4969399;28;45597;-65
2021/11/14 04:57:50;;;;;;;;;3.00;3.00;;;;;22.05;41.96;101773.03;4972187;28;45519;-65
2021/11/14 05:00:25;;;;;;;;;4.00;2.50;;;;;22.06;42.17;101769.41;4955510;28;45465;-65
2021/11/14 05:02:50;;;;;;;;;3.00;2.00;;;;;22.03;42.35;101771.53;4970271;28;45460;-65
2021/11/14 05:05:16;;;;;;;;;1.00;1.00;;;;;22.05;42.35;101770.38;4972586;28;45352;-65
2021/11/14 05:07:42;;;;;;;;;2.00;2.00;;;;;22.04;41.89;101771.34;4971464;28;45516;-65
2021/11/14 05:10:08;;;;;;;;;2.50;2.50;;;;;21.99;41.87;101764.91;4971501;28;45346;-65
2021/11/14 05:12:33;;;;;;;;;3.00;3.00;;;;;22.04;42.06;101770.56;4972064;28;45523;-65
2021/11/14 05:14:59;;;;;;;;;3.00;3.00;;;;;22.04;42.20;101770.56;4972343;28;45267;-65
2021/11/14 05:17:24;;;;;;;;;3.00;1.50;;;;;22.03;42.43;101767.06;4973237;28;46650;-65
2021/11/14 05:19:50;;;;;;;;;3.00;3.00;;;;;22.02;42.09;101764.56;4971471;28;45395;-65
2021/11/14 05:22:16;;;;;;;;;3.00;3.00;;;;;21.99;42.18;101759.59;4971526;28;45486;-65
2021/11/14 05:24:42;;;;;;;;;4.00;4.00;;;;;22.02;41.82;101759.25;4971925;28;45488;-65
2021/11/14 05:27:08;;;;;;;;;2.75;2.75;;;;;22.03;42.30;101761.78;4971591;28;47501;-65
2021/11/14 05:29:34;;;;;;;;;3.00;2.50;;;;;22.01;42.10;101758.44;4973440;28;45371;-65
2021/11/14 05:31:59;;;;;;;;;2.25;1.25;;;;;21.86;41.85;101736.94;4971555;28;45401;-65
2021/11/14 05:34:25;;;;;;;;;2.00;2.00;;;;;22.03;41.85;101758.28;4970312;28;45380;-65
2021/11/14 05:36:50;;;;;;;;;3.00;1.25;;;;;21.99;41.88;101760.41;4970946;28;46428;-65
2021/11/14 05:39:16;;;;;;;;;2.00;2.00;;;;;22.03;42.46;101760.94;4969027;28;45510;-64
2021/11/14 05:41:41;;;;;;;;;4.50;3.00;;;;;22.03;42.23;101774.19;4973522;28;45379;-65
2021/11/14 05:44:07;;;;;;;;;2.75;2.00;;;;;22.03;41.98;101766.22;4971379;28;45508;-65
2021/11/14 05:46:33;;;;;;;;;1.00;1.00;;;;;22.01;41.93;101771.69;4971231;28;46585;-65
2021/11/14 05:48:59;;;;;;;;;3.00;3.00;;;;;22.04;42.22;101771.34;4971080;28;45550;-65
2021/11/14 05:51:25;;;;;;;;;3.00;3.00;;;;;22.03;42.14;101775.00;4971153;28;45334;-65
2021/11/14 05:53:50;;;;;;;;;2.00;2.00;;;;;22.05;42.23;101777.50;4972300;28;45649;-65
2021/11/14 05:56:16;;;;;;;;;4.00;3.00;;;;;22.00;41.72;101774.50;4971972;28;45460;-65
2021/11/14 05:58:49;;;;;;;;;3.00;3.00;;;;;22.05;42.29;101786.28;4971013;28;45331;-65
2021/11/14 06:01:25;;;;;;;;;4.00;2.00;;;;;21.89;41.75;101760.53;4971116;28;45481;-65
2021/11/14 06:06:22;;;;;;;;;2.00;2.00;;;;;22.05;42.27;101788.94;4970894;28;46158;-65
2021/11/14 06:08:47;;;;;;;;;2.25;2.25;;;;;22.01;41.79;101781.47;4972814;28;45309;-65
2021/11/14 06:11:12;;;;;;;;;1.25;1.25;;;;;22.05;42.34;101790.75;4971228;28;45379;-65
2021/11/14 06:13:37;;;;;;;;;1.25;1.00;;;;;22.05;42.24;101788.09;4969631;28;45356;-65
2021/11/14 06:16:03;;;;;;;;;2.00;2.00;;;;;22.05;41.83;101794.22;4970865;28;45578;-65
2021/11/14 06:18:29;;;;;;;;;2.00;2.00;;;;;22.04;41.81;101799.69;4969465;28;45557;-65
2021/11/14 06:20:56;;;;;;;;;2.00;2.00;;;;;22.05;41.86;101801.34;4971752;28;45296;-65
2021/11/14 06:23:22;;;;;;;;;2.00;2.00;;;;;22.07;41.80;101804.66;4972009;28;45480;-65
2021/11/14 06:25:47;;;;;;;;;2.00;2.00;;;;;22.06;42.20;101810.97;4970534;28;45485;-64
2021/11/14 06:28:13;;;;;;;;;1.00;1.00;;;;;22.04;42.21;101810.31;4969505;28;45602;-65
2021/11/14 06:30:38;;;;;;;;;2.50;1.00;;;;;22.03;42.33;101808.63;4969953;28;45451;-64
2021/11/14 06:33:05;;;;;;;;;1.00;1.00;;;;;22.04;41.77;101812.94;4970920;28;45265;-65
2021/11/14 06:35:30;;;;;;;;;3.00;1.00;;;;;22.04;42.22;101808.47;4972382;28;48355;-66
2021/11/14 06:37:56;;;;;;;;;1.25;1.00;;;;;22.00;41.71;101807.13;4970348;28;45439;-66
2021/11/14 06:40:22;;;;;;;;;1.75;1.25;;;;;22.03;42.10;101824.53;4970660;28;45320;-66
2021/11/14 06:42:49;;;;;;;;;3.75;2.00;;;;;22.01;41.92;101811.44;4970719;28;45290;-66
2021/11/14 06:45:14;;;;;;;;;3.75;1.75;;;;;21.95;41.91;101806.75;4954335;28;45400;-65
2021/11/14 06:47:40;;;;;;;;;1.00;1.00;;;;;22.02;41.92;101813.09;4972010;28;45276;-66
2021/11/14 06:50:05;;;;;;;;;1.50;1.50;;;;;22.04;41.83;101821.72;4970085;28;45623;-66
2021/11/14 06:52:31;;;;;;;;;2.50;1.25;;;;;22.03;41.93;101819.22;4971983;28;45677;-66
2021/11/14 06:54:56;;;;;;;;;2.00;2.00;;;;;22.04;41.96;101829.66;4973465;28;46074;-66
2021/11/14 06:57:22;;;;;;;;;2.00;2.00;;;;;22.03;42.16;101828.00;4972181;28;45464;-66
2021/11/14 06:59:48;;;;;;;;;2.00;2.00;;;;;22.04;42.13;101832.31;4975410;28;45592;-66
2021/11/14 07:02:14;;;;;;;;;3.50;2.00;;;;;22.03;42.26;101824.53;4973872;28;45790;-66
2021/11/14 07:04:39;;;;;;;;;2.00;2.00;;;;;22.03;42.18;101830.66;4972830;28;45370;-67
2021/11/14 07:07:06;;;;;;;;;1.00;1.00;;;;;21.87;41.93;101807.53;4973281;28;45590;-65
2021/11/14 07:09:31;;;;;;;;;2.00;2.00;;;;;22.02;42.41;101834.28;4973589;28;45359;-66
2021/11/14 07:11:57;;;;;;;;;1.25;1.25;;;;;22.00;41.89;101832.78;4974208;28;45426;-66
2021/11/14 07:14:25;;;;;;;;;1.00;1.00;;;;;22.02;42.02;101836.94;4974601;28;46483;-66
2021/11/14 07:16:51;;;;;;;;;2.75;2.75;;;;;22.03;41.81;101840.44;4973232;28;45427;-66
2021/11/14 07:19:17;;;;;;;;;2.25;2.25;;;;;22.03;41.93;101838.63;4972778;28;45608;-66
2021/11/14 07:21:44;;;;;;;;;2.25;2.00;;;;;22.04;42.42;101850.06;4973291;28;45512;-66
2021/11/14 07:24:10;;;;;;;;;6.75;1.00;;;;;22.04;41.84;101850.06;4973033;28;45540;-66
2021/11/14 07:26:36;;;;;;;;;1.25;1.25;;;;;22.04;42.25;101858.00;4975169;28;45406;-65
2021/11/14 07:29:01;;;;;;;;;2.00;2.00;;;;;22.03;41.82;101858.97;4973203;28;45379;-66
2021/11/14 07:31:26;;;;;;;;;2.00;2.00;;;;;21.99;42.16;101860.28;4973205;28;45440;-66
2021/11/14 07:33:52;;;;;;;;;3.00;3.00;;;;;22.03;42.32;101865.13;4972826;28;45628;-66
2021/11/14 07:36:17;;;;;;;;;1.00;1.00;;;;;21.89;41.64;101840.00;4971844;28;45389;-66
2021/11/14 07:38:43;;;;;;;;;1.00;1.00;;;;;22.05;42.31;101862.28;4975089;28;45768;-66
2021/11/14 07:41:09;;;;;;;;;1.00;1.00;;;;;22.03;41.87;101864.28;4972962;28;45597;-66
2021/11/14 07:43:35;;;;;;;;;1.00;1.00;;;;;22.06;42.14;101867.47;4972883;28;45641;-66
2021/11/14 07:46:02;;;;;;;;;1.50;1.00;;;;;22.06;41.71;101875.41;4972762;28;45337;-66
2021/11/14 07:48:28;;;;;;;;;1.75;1.75;;;;;22.05;41.99;101864.94;4972973;28;45350;-66
2021/11/14 07:50:54;;;;;;;;;2.50;1.50;;;;;22.05;41.93;101871.09;4974200;28;45546;-66
2021/11/14 07:53:21;;;;;;;;;1.25;1.25;;;;;22.05;42.14;101880.84;4973752;28;45295;-66
2021/11/14 07:55:46;;;;;;;;;1.33;0.00;;;;;22.04;41.61;101880.00;4972646;28;45393;-66
2021/11/14 07:58:11;;;;;;;;;1.50;1.50;;;;;22.03;42.30;101869.56;4972726;28;45481;-66
2021/11/14 08:00:38;;;;;;;;;2.00;2.00;;;;;22.07;42.14;101881.53;4972765;28;45332;-66
2021/11/14 08:03:03;;;;;;;;;2.00;1.00;;;;;22.05;42.10;101876.38;4971989;28;45465;-66
2021/11/14 08:05:30;;;;;;;;;3.00;2.00;;;;;22.01;42.25;101877.69;4972795;28;45501;-66
2021/11/14 08:07:56;;;;;;;;;1.50;1.50;;;;;22.05;41.99;101888.81;4971617;28;45219;-66
2021/11/14 08:10:22;;;;;;;;;1.00;1.00;;;;;22.05;41.88;101892.28;4971194;28;45601;-66
2021/11/14 08:12:48;;;;;;;;;1.00;1.00;;;;;22.03;42.25;101886.31;4972523;28;45514;-65
2021/11/14 08:15:14;;;;;;;;;1.00;1.00;;;;;21.99;41.80;101889.44;4971765;28;45388;-65
2021/11/14 08:17:40;;;;;;;;;2.00;1.00;;;;;22.02;41.83;101903.19;4974039;28;45466;-66
2021/11/14 08:20:07;;;;;;;;;1.00;1.00;;;;;22.02;42.17;101899.69;4972334;28;45419;-66
2021/11/14 08:22:33;;;;;;;;;1.50;1.50;;;;;22.03;42.17;101907.53;4972460;28;46296;-66
2021/11/14 08:25:00;;;;;;;;;1.00;1.00;;;;;22.02;42.18;101897.88;4972262;28;45674;-66
2021/11/14 08:27:30;;;;;;;;;1.50;1.50;;;;;22.00;42.21;101902.53;4972873;28;45511;-66
2021/11/14 08:29:55;;;;;;;;;0.75;0.75;;;;;22.03;42.14;101901.38;4973369;28;45581;-66
2021/11/14 08:32:20;;;;;;;;;1.25;1.25;;;;;22.03;42.14;101904.88;4972864;28;46141;-66
2021/11/14 08:34:46;;;;;;;;;1.50;1.00;;;;;21.99;42.04;101898.19;4972227;28;45443;-66
2021/11/14 08:37:12;;;;;;;;;2.50;1.00;;;;;22.02;41.87;101905.00;4972295;28;45396;-66
2021/11/14 08:39:38;;;;;;;;;1.00;1.00;;;;;22.03;42.28;101904.03;4982516;28;45455;-66
2021/11/14 08:42:04;;;;;;;;;2.50;1.00;;;;;21.97;42.26;101889.56;4979090;28;47654;-66
2021/11/14 08:44:29;;;;;;;;;1.00;1.00;;;;;21.99;41.93;101903.50;4974174;28;45292;-66
2021/11/14 08:46:55;;;;;;;;;1.00;1.00;;;;;22.02;42.23;101899.69;4972036;28;45425;-66
2021/11/14 08:49:22;;;;;;;;;1.00;1.00;;;;;22.03;42.41;101910.16;4970771;28;45280;-66
2021/11/14 08:51:48;;;;;;;;;0.50;0.00;;;;;22.02;42.26;101907.66;4972052;28;45810;-66
2021/11/14 08:54:14;;;;;;;;;0.50;0.50;;;;;22.01;41.74;101904.19;4971318;28;45361;-66
2021/11/14 08:56:39;;;;;;;;;2.00;2.00;;;;;22.03;42.13;101915.47;4973827;28;45384;-65
2021/11/14 08:59:07;;;;;;;;;0.75;0.75;;;;;22.04;42.15;101914.47;4971740;28;45389;-66
2021/11/14 09:01:33;;;;;;;;;1.25;1.00;;;;;22.04;41.92;101913.66;4970558;28;45344;-66
2021/11/14 09:03:58;;;;;;;;;2.00;2.00;;;;;22.02;41.68;101907.66;4971658;28;45406;-66
2021/11/14 09:06:24;;;;;;;;;1.00;1.00;;;;;22.04;41.94;101914.47;4972209;28;45430;-66
2021/11/14 09:08:50;;;;;;;;;1.25;1.25;;;;;22.03;41.94;101904.88;4973732;28;45418;-66
2021/11/14 09:11:17;;;;;;;;;1.00;1.00;;;;;22.01;41.91;101898.91;4972400;28;46569;-66
2021/11/14 09:13:42;;;;;;;;;1.00;1.00;;;;;22.04;41.73;101895.91;4971189;28;45492;-65
2021/11/14 09:16:08;;;;;;;;;1.50;1.50;;;;;22.04;41.85;101903.88;4971659;28;45477;-66
2021/11/14 09:18:33;;;;;;;;;2.00;0.25;;;;;22.05;41.93;101899.41;4972000;28;45270;-66
2021/11/14 09:20:59;;;;;;;;;0.75;0.75;;;;;21.95;41.73;101881.78;4972312;28;46341;-66
2021/11/14 09:23:27;;;;;;;;;1.00;1.00;;;;;22.04;41.82;101892.47;4973111;28;45370;-66
2021/11/14 09:25:54;;;;;;;;;2.75;2.00;;;;;22.03;42.01;101898.72;4971596;28;45461;-66
2021/11/14 09:28:19;;;;;;;;;1.75;1.75;;;;;22.03;41.76;101902.22;4969848;28;45498;-66
2021/11/14 09:30:49;;;;;;;;;1.25;1.25;;;;;22.05;42.26;101910.84;4971321;28;47272;-66
2021/11/14 09:33:16;;;;;;;;;1.00;1.00;;;;;22.08;42.29;101907.03;4970519;28;45533;-65
2021/11/14 09:35:41;;;;;;;;;0.33;0.33;;;;;22.06;42.11;101916.97;4973695;28;45422;-66
2021/11/14 09:38:07;;;;;;;;;0.00;0.00;;;;;22.06;42.26;101919.63;4971408;28;45415;-66
2021/11/14 09:40:33;;;;;;;;;1.25;1.25;;;;;22.03;42.32;101914.63;4970111;28;45599;-66
2021/11/14 09:42:58;;;;;;;;;1.25;1.25;;;;;22.04;42.07;101916.31;4971033;28;45604;-66
2021/11/14 09:45:29;;;;;;;;;1.00;1.00;;;;;21.92;42.32;101891.84;4971508;28;45737;-66
2021/11/14 09:47:55;;;;;;;;;2.00;0.25;;;;;22.07;42.15;101913.31;4972770;28;45339;-66
2021/11/14 09:50:20;;;;;;;;;1.00;1.00;;;;;22.04;41.79;101922.41;4971967;28;46552;-66
2021/11/14 09:52:46;;;;;;;;;2.25;1.00;;;;;22.06;42.07;101919.63;4971189;28;45450;-66
2021/11/14 09:55:11;;;;;;;;;0.00;0.00;;;;;22.06;41.98;101916.97;4971240;28;45279;-66
2021/11/14 09:57:40;;;;;;;;;1.25;1.00;;;;;22.03;41.85;101915.47;4971142;28;45490;-66
2021/11/14 10:00:09;;;;;;;;;1.00;1.00;;;;;22.06;41.96;101919.63;4970926;28;46400;-66
2021/11/14 10:02:36;;;;;;;;;1.00;1.00;;;;;22.06;42.06;101924.94;4972754;28;45831;-66
2021/11/14 10:05:03;;;;;;;;;1.00;1.00;;;;;22.06;42.00;101927.56;4971010;28;45548;-66
2021/11/14 10:07:28;;;;;;;;;4.25;2.75;;;;;22.03;41.72;101923.41;4969653;28;45421;-66
2021/11/14 10:09:54;;;;;;;;;2.00;1.25;;;;;22.05;42.16;101925.91;4970752;28;45409;-66
2021/11/14 10:12:28;;;;;;;;;0.33;0.33;;;;;22.04;42.48;101926.91;4969209;28;45445;-66
2021/11/14 10:15:14;;;;;;;;;3.00;0.75;;;;;22.05;41.93;101928.56;4972434;28;45453;-66
2021/11/14 10:17:51;;;;;;;;;1.00;1.00;;;;;22.04;41.75;101937.50;4971703;28;45316;-66
2021/11/14 10:20:23;;;;;;;;;1.50;1.00;;;;;22.04;41.77;101938.31;4969917;28;46087;-66
2021/11/14 10:22:55;;;;;;;;;1.00;1.00;;;;;22.04;42.36;101933.00;4970701;28;45332;-66
2021/11/14 10:25:21;;;;;;;;;0.00;0.00;;;;;22.05;41.97;101939.16;4971129;28;45438;-67
2021/11/14 10:27:49;;;;;;;;;2.75;1.25;;;;;22.01;42.26;101935.16;4973528;28;45436;-67
2021/11/14 10:30:14;;;;;;;;;1.00;1.00;;;;;22.03;41.91;101922.56;4973702;28;45979;-67
2021/11/14 10:32:40;;;;;;;;;1.25;0.50;;;;;22.04;42.00;101938.31;4975822;28;45386;-67
2021/11/14 10:35:07;;;;;;;;;0.75;0.00;;;;;22.04;42.30;101938.31;4974002;28;45328;-67
2021/11/14 10:37:42;;;;;;;;;1.00;1.00;;;;;22.06;42.45;101943.47;4973736;28;45447;-67
2021/11/14 10:40:09;;;;;;;;;1.00;1.00;;;;;22.04;42.33;101946.25;4973322;28;47348;-67
2021/11/14 10:42:35;;;;;;;;;1.00;1.00;;;;;22.05;41.85;101944.44;4973120;28;45529;-67
2021/11/14 10:45:04;;;;;;;;;1.00;1.00;;;;;22.06;42.41;101951.44;4974543;28;45362;-67
2021/11/14 10:47:30;;;;;;;;;1.50;0.75;;;;;22.01;42.11;101940.47;4973627;28;45340;-66
2021/11/14 10:50:03;;;;;;;;;1.75;1.25;;;;;22.06;41.91;101946.13;4973217;28;46528;-67
2021/11/14 10:52:30;;;;;;;;;0.00;0.00;;;;;21.89;42.13;101937.19;4971802;28;45355;-67
2021/11/14 10:55:03;;;;;;;;;0.00;0.00;;;;;21.79;42.13;101945.19;4973534;28;45537;-68
2021/11/14 10:57:30;;;;;;;;;0.50;0.50;;;;;21.66;42.83;101937.63;4973140;28;45585;-67
2021/11/14 10:59:56;;;;;;;;;1.75;1.00;;;;;21.58;42.56;101941.88;4967434;28;46476;-67
2021/11/14 11:02:23;;;;;;;;;1.50;1.50;;;;;21.54;42.83;101944.97;4972898;28;45475;-67
2021/11/14 11:04:52;;;;;;;;;1.00;1.00;;;;;21.49;43.03;101942.78;4973533;28;45372;-67
2021/11/14 11:07:18;;;;;;;;;0.25;0.25;;;;;21.48;42.97;101935.81;4973275;28;45437;-67
2021/11/14 11:09:44;;;;;;;;;1.00;1.00;;;;;21.46;43.14;101928.03;4972777;28;47465;-69
2021/11/14 11:12:20;;;;;;;;;1.00;1.00;;;;;21.50;43.55;101942.63;4973094;28;45558;-67
2021/11/14 11:14:57;;;;;;;;;1.75;1.75;;;;;21.52;43.48;101931.84;4971498;28;45359;-65
2021/11/14 11:17:23;;;;;;;;;1.00;1.00;;;;;21.58;43.45;101931.28;4974423;28;45414;-67
2021/11/14 11:19:48;;;;;;;;;1.00;1.00;;;;;21.60;43.43;101928.47;4972483;28;45535;-67
2021/11/14 11:22:14;;;;;;;;;0.00;0.00;;;;;21.62;43.29;101927.31;4966882;28;45426;-67
2021/11/14 11:24:51;;;;;;;;;2.00;1.00;;;;;21.71;43.60;101940.66;4970177;28;45951;-68